Terminal Aerodrome Forecast
Issued by NWS Austin/San Antonio, TX

Home | Current Version | Previous Version | Text Only | Print | Product List | Glossary On
Versions: 1 2 3 4 5 6 7 8 9 10 11
305
FTUS44 KEWX 131126
TAFDRT
TAF
KDRT 131126Z 1312/1412 VRB03KT P6SM SKC
     FM131500 11006KT P6SM SCT010
     FM131700 14015KT P6SM SCT250
     FM140100 11012KT P6SM SCT250
     FM141100 10012KT P6SM OVC013=

USA.gov is the U.S. government's official web portal to all federal, state and local government web resources and services.